Map

Track Data

SID SEASON NUMBER BASIN SUBBASIN NAME ISO_TIME NATURE LAT LON WMO_WIND WMO_PRES WMO_AGENCY TRACK_TYPE DIST2LAND LANDFALL IFLAG USA_AGENCY USA_ATCF_ID USA_LAT USA_LON USA_RECORD USA_STATUS USA_WIND USA_PRES USA_SSHS USA_R34_NE USA_R34_SE USA_R34_SW USA_R34_NW USA_R50_NE USA_R50_SE USA_R50_SW USA_R50_NW USA_R64_NE USA_R64_SE USA_R64_SW USA_R64_NW USA_POCI USA_ROCI USA_RMW USA_EYE TOKYO_LAT TOKYO_LON TOKYO_GRADE TOKYO_WIND TOKYO_PRES TOKYO_R50_DIR TOKYO_R50_LONG TOKYO_R50_SHORT TOKYO_R30_DIR TOKYO_R30_LONG TOKYO_R30_SHORT TOKYO_LAND CMA_LAT CMA_LON CMA_CAT CMA_WIND CMA_PRES HKO_LAT HKO_LON HKO_CAT HKO_WIND HKO_PRES NEWDELHI_LAT NEWDELHI_LON NEWDELHI_GRADE NEWDELHI_WIND NEWDELHI_PRES NEWDELHI_CI NEWDELHI_DP NEWDELHI_POCI REUNION_LAT REUNION_LON REUNION_TYPE REUNION_WIND REUNION_PRES REUNION_TNUM REUNION_CI REUNION_RMW REUNION_R34_NE REUNION_R34_SE REUNION_R34_SW REUNION_R34_NW REUNION_R50_NE REUNION_R50_SE REUNION_R50_SW REUNION_R50_NW REUNION_R64_NE REUNION_R64_SE REUNION_R64_SW REUNION_R64_NW BOM_LAT BOM_LON BOM_TYPE BOM_WIND BOM_PRES BOM_TNUM BOM_CI BOM_RMW BOM_R34_NE BOM_R34_SE BOM_R34_SW BOM_R34_NW BOM_R50_NE BOM_R50_SE BOM_R50_SW BOM_R50_NW BOM_R64_NE BOM_R64_SE BOM_R64_SW BOM_R64_NW BOM_ROCI BOM_POCI BOM_EYE BOM_POS_METHOD BOM_PRES_METHOD NADI_LAT NADI_LON NADI_CAT NADI_WIND NADI_PRES WELLINGTON_LAT WELLINGTON_LON WELLINGTON_WIND WELLINGTON_PRES DS824_LAT DS824_LON DS824_STAGE DS824_WIND DS824_PRES TD9636_LAT TD9636_LON TD9636_STAGE TD9636_WIND TD9636_PRES TD9635_LAT TD9635_LON TD9635_WIND TD9635_PRES TD9635_ROCI NEUMANN_LAT NEUMANN_LON NEUMANN_CLASS NEUMANN_WIND NEUMANN_PRES MLC_LAT MLC_LON MLC_CLASS MLC_WIND MLC_PRES USA_GUST BOM_GUST BOM_GUST_PER REUNION_GUST REUNION_GUST_PER USA_SEAHGT USA_SEARAD_NE USA_SEARAD_SE USA_SEARAD_SW USA_SEARAD_NW STORM_SPEED STORM_DIR
2020332S11091 2021 112 SI WA BONGOYO 2020-11-26 12:00:00 NR -11.2000 91.2000 main 1362 1355 O_____________ jtwc_sh SH022021 -11.2000 91.2000 DB 15 1006 -3 1008 245 6 119
2020332S11091 2021 112 SI WA BONGOYO 2020-11-26 15:00:00 NR -11.3376 91.4575 main 1350 1350 P_____________ SH022021 -11.3376 91.4575 DB 15 1006 -3 1008 232 6 121
2020332S11091 2021 112 SI WA BONGOYO 2020-11-26 18:00:00 NR -11.5000 91.7000 main 1355 1349 O_____________ jtwc_sh SH022021 -11.5000 91.7000 DB 15 1007 -3 1009 220 6 129
2020332S11091 2021 112 SI WA BONGOYO 2020-11-26 21:00:00 NR -11.7000 91.9150 main 1361 1354 P_____________ SH022021 -11.7000 91.9150 DB 15 1007 -3 1009 220 6 136
2020332S11091 2021 112 SI WA BONGOYO 2020-11-27 00:00:00 NR -11.9000 92.1000 main 1367 1361 O_____________ jtwc_sh SH022021 -11.9000 92.1000 DB 15 1007 -3 1009 220 5 135
2020332S11091 2021 112 SI WA BONGOYO 2020-11-27 03:00:00 NR -12.0350 92.2501 main 1364 1364 P_____________ SH022021 -12.0350 92.2501 DB 15 1008 -3 1009 220 4 136
2020332S11091 2021 112 SI WA BONGOYO 2020-11-27 06:00:00 NR -12.2000 92.4000 main 1377 1377 O_____________ jtwc_sh SH022021 -12.2000 92.4000 DB 15 1009 -3 1009 220 6 143
2020332S11091 2021 112 SI WA BONGOYO 2020-11-27 09:00:00 NR -12.5000 92.6074 main 1395 1395 P_____________ SH022021 -12.5000 92.6074 DB 17 1008 -3 1009 220 7 147
2020332S11091 2021 112 SI WA BONGOYO 2020-11-27 12:00:00 NR -12.8000 92.8000 main 1413 1413 O_____________ jtwc_sh SH022021 -12.8000 92.8000 DB 20 1008 -3 1009 220 6 146
2020332S11091 2021 112 SI WA BONGOYO 2020-11-27 15:00:00 NR -12.9725 92.9375 main 1428 1423 P_____________ SH022021 -12.9725 92.9375 DB 20 1007 -3 1009 215 4 147
2020332S11091 2021 112 SI WA BONGOYO 2020-11-27 18:00:00 NR -13.1000 93.0000 main 1433 1433 O_____________ jtwc_sh SH022021 -13.1000 93.0000 DB 20 1006 -3 1009 210 3 168
2020332S11091 2021 112 SI WA BONGOYO 2020-11-27 21:00:00 NR -13.2725 93.0025 main 1452 1452 P_____________ SH022021 -13.2725 93.0025 DB 20 1006 -3 1009 200 3 197
2020332S11091 2021 112 SI WA BONGOYO 2020-11-28 00:00:00 NR -13.4000 92.9000 main 1467 1467 O_____________ jtwc_sh SH022021 -13.4000 92.9000 DB 20 1007 -3 1009 190 3 242
2020332S11091 2021 112 SI WA BONGOYO 2020-11-28 03:00:00 NR -13.4375 92.6875 main 1477 1477 P_____________ SH022021 -13.4375 92.6875 DB 20 1007 -3 1009 190 5 270
2020332S11091 2021 112 SI WA BONGOYO 2020-11-28 06:00:00 NR -13.4000 92.4000 main 1493 1493 O_____________ jtwc_sh SH022021 -13.4000 92.4000 DB 20 1007 -3 1009 190 6 280
2020332S11091 2021 112 SI WA BONGOYO 2020-11-28 09:00:00 NR -13.3376 92.0850 main 1499 1499 P_____________ SH022021 -13.3376 92.0850 DB 20 1007 -3 1009 190 6 289
2020332S11091 2021 112 SI WA BONGOYO 2020-11-28 12:00:00 NR -13.2000 91.8000 main 1507 1499 O_____________ jtwc_sh SH022021 -13.2000 91.8000 DB 20 1007 -3 1009 190 6 307
2020332S11091 2021 112 SI WA BONGOYO 2020-11-28 15:00:00 NR -12.9800 91.5899 main 1499 1477 P_____________ SH022021 -12.9800 91.5899 DB 20 1007 -3 1009 185 6 330
2020332S11091 2021 112 SI WA BONGOYO 2020-11-28 18:00:00 NR -12.7000 91.5000 main 1477 1444 O_____________ jtwc_sh SH022021 -12.7000 91.5000 DB 20 1007 -3 1009 180 30 6 4
2020332S11091 2021 112 SI WA BONGOYO 2020-11-28 21:00:00 NR -12.3775 91.6303 main 1444 1410 P_____________ SH022021 -12.3775 91.6303 DB 20 1007 -3 1009 175 30 6 18
2020332S11091 2021 112 SI WA BONGOYO 2020-11-29 00:00:00 NR -12.1000 91.7000 main 1410 1407 O_____________ jtwc_sh SH022021 -12.1000 91.7000 DB 20 1007 -3 1009 170 30 4 327
2020332S11091 2021 112 SI WA BONGOYO 2020-11-29 03:00:00 NR -12.0077 91.3875 main 1420 1420 P_____________ SH022021 -12.0077 91.3875 DB 20 1007 -3 1009 170 35 7 286
2020332S11091 2021 112 SI WA BONGOYO 2020-11-29 06:00:00 NR -11.9000 91.0000 main 1437 1417 O_____________ jtwc_sh SH022021 -11.9000 91.0000 DB 20 1007 -3 1009 170 40 7 310
2020332S11091 2021 112 SI WA BONGOYO 2020-11-29 09:00:00 NR -11.5499 90.8275 main 1416 1397 P_____________ SH022021 -11.5499 90.8275 DB 20 1007 -3 1009 170 40 8 337
2020332S11091 2021 112 SI WA BONGOYO 2020-11-29 12:00:00 NR -11.2000 90.7000 main 1397 1389 O_____________ jtwc_sh SH022021 -11.2000 90.7000 DB 20 1007 -3 1009 170 40 6 328
2020332S11091 2021 112 SI WA BONGOYO 2020-11-29 15:00:00 NR -11.0550 90.5076 main 1403 1395 P_____________ SH022021 -11.0550 90.5076 DB 22 1006 -3 1008 177 45 4 297
2020332S11091 2021 112 SI WA BONGOYO 2020-11-29 18:00:00 TS -11.0000 90.3000 main 1410 1410 O_____________ jtwc_sh SH022021 -11.0000 90.3000 TD 25 1005 -1 1008 185 50 4 285
2020332S11091 2021 112 SI WA BONGOYO 2020-11-29 21:00:00 TS -10.9574 90.1301 main 1425 1417 P_____________ SH022021 -10.9574 90.1301 TD 25 1005 -1 1008 180 50 4 284
2020332S11091 2021 112 SI MM BONGOYO 2020-11-30 00:00:00 TS -10.9000 89.9000 main 1432 1432 O_____________ jtwc_sh SH022021 -10.9000 89.9000 TD 25 1005 -1 1009 175 50 6 293
2020332S11091 2021 112 SI MM BONGOYO 2020-11-30 03:00:00 TS -10.7125 89.5447 main 1447 1447 P_____________ SH022021 -10.7125 89.5447 TD 25 1005 -1 1008 157 50 8 291
2020332S11091 2021 112 SI MM BONGOYO 2020-11-30 06:00:00 TS -10.6000 89.1000 main 1472 1472 O_____________ jtwc_sh SH022021 -10.6000 89.1000 TD 25 1006 -1 1008 140 50 10 264
2020332S11091 2021 112 SI MM BONGOYO 2020-11-30 09:00:00 TS -10.8076 88.5780 main 1528 1528 P_____________ SH022021 -10.8076 88.5780 TD 22 1006 -1 1007 130 50 11 248
2020332S11091 2021 112 SI MM BONGOYO 2020-11-30 12:00:00 NR -11.0000 88.1000 main 1584 1584 O_____________ jtwc_sh SH022021 -11.0000 88.1000 DB 20 1006 -3 1007 120 50 7 268
2020332S11091 2021 112 SI MM BONGOYO 2020-11-30 15:00:00 NR -10.8298 87.8198 main 1595 1589 P_____________ SH022021 -10.8298 87.8198 DB 20 1007 -3 1008 145 50 6 309
2020332S11091 2021 112 SI MM BONGOYO 2020-11-30 18:00:00 NR -10.6000 87.6000 main 1598 1598 O_____________ jtwc_sh SH022021 -10.6000 87.6000 DB 20 1009 -3 1010 170 50 6 296
2020332S11091 2021 112 SI MM BONGOYO 2020-11-30 21:00:00 NR -10.5775 87.2926 main 1624 1624 P_____________ SH022021 -10.5775 87.2926 DB 22 1008 -3 1010 165 50 6 270
2020332S11091 2021 112 SI MM BONGOYO 2020-12-01 00:00:00 TS -10.6000 87.0000 main 1650 1650 O_____________ jtwc_sh SH022021 -10.6000 87.0000 TD 25 1007 -1 1010 160 50 4 269
2020332S11091 2021 112 SI MM BONGOYO 2020-12-01 03:00:00 TS -10.5872 86.8602 main 1659 1659 P_____________ SH022021 -10.5872 86.8602 TD 22 1008 -1 1010 160 50 4 284
2020332S11091 2021 112 SI MM BONGOYO 2020-12-01 06:00:00 NR -10.5000 86.6000 main 1679 1679 O_____________ jtwc_sh SH022021 -10.5000 86.6000 DB 20 1009 -3 1010 160 50 9 286
2020332S11091 2021 112 SI MM BONGOYO 2020-12-01 09:00:00 NR -10.3254 85.9374 main 1730 1730 P_____________ SH022021 -10.3254 85.9374 DB 20 1009 -3 1010 160 50 15 290
2020332S11091 2021 112 SI MM BONGOYO 2020-12-01 12:00:00 NR -10.0000 85.2000 main 1778 1778 O_____________ jtwc_sh SH022021 -10.0000 85.2000 DB 20 1009 -3 1010 160 50 15 308
2020332S11091 2021 112 SI MM BONGOYO 2020-12-01 15:00:00 NR -9.43453 84.7650 main 1776 1708 P_____________ SH022021 -9.43453 84.7650 DB 20 1007 -3 1009 170 50 14 321
2020332S11091 2021 112 SI MM BONGOYO 2020-12-01 18:00:00 NR -8.90000 84.3000 main 1708 1667 O_____________ jtwc_sh SH022021 -8.90000 84.3000 DB 20 1006 -3 1009 180 50 15 299
2020332S11091 2021 112 SI MM BONGOYO 2020-12-01 21:00:00 NR -8.71313 83.4252 main 1665 1641 P_____________ SH022021 -8.71313 83.4252 DB 17 1007 -3 1008 190 50 16 281
2020332S11091 2021 112 SI MM BONGOYO 2020-12-02 00:00:00 NR -8.60000 82.7000 main 1641 1606 O_____________ jtwc_sh SH022021 -8.60000 82.7000 DB 15 1008 -3 1008 200 50 9 297
2020332S11091 2021 112 SI MM BONGOYO 2020-12-02 03:00:00 NR -8.30726 82.6227 main 1606 1576 P_____________ SH022021 -8.30726 82.6227 DB 17 1008 -3 1008 200 50 6 9
2020332S11091 2021 112 SI MM BONGOYO 2020-12-02 06:00:00 NR -8.00000 82.8000 main 1576 1554 O_____________ jtwc_sh SH022021 -8.00000 82.8000 DB 20 1008 -3 1008 200 50 6 22
2020332S11091 2021 112 SI MM BONGOYO 2020-12-02 09:00:00 NR -7.77000 82.8425 main 1554 1534 P_____________ SH022021 -7.77000 82.8425 DB 20 1007 -3 1008 200 50 4 13
2020332S11091 2021 112 SI MM BONGOYO 2020-12-02 12:00:00 NR -7.60000 82.9000 main 1534 1523 O_____________ jtwc_sh SH022021 -7.60000 82.9000 DB 20 1006 -3 1008 200 50 3 29
2020332S11091 2021 112 SI MM BONGOYO 2020-12-02 15:00:00 NR -7.47751 83.0000 main 1525 1514 P_____________ SH022021 -7.47751 83.0000 DB 20 1006 -3 1008 225 50 3 45
2020332S11091 2021 112 SI MM BONGOYO 2020-12-02 18:00:00 NR -7.40000 83.1000 main 1516 1516 O_____________ jtwc_sh SH022021 -7.40000 83.1000 DB 20 1007 -3 1009 250 50 2 52
2020332S11091 2021 112 SI MM BONGOYO 2020-12-02 21:00:00 NR -7.35000 83.1650 main 1507 1507 P_____________ SH022021 -7.35000 83.1650 DB 20 1006 -3 1008 210 50 1 43
2020332S11091 2021 112 SI MM BONGOYO 2020-12-03 00:00:00 NR -7.30000 83.2000 main 1507 1496 O_____________ jtwc_sh SH022021 -7.30000 83.2000 DB 20 1005 -3 1007 170 50 1 0
2020332S11091 2021 112 SI MM BONGOYO 2020-12-03 03:00:00 NR -7.22246 83.1549 main 1496 1485 P_____________ SH022021 -7.22246 83.1549 DB 22 1004 -3 1007 170 50 2 8
2020332S11091 2021 112 SI MM BONGOYO 2020-12-03 06:00:00 TS -7.10000 83.2000 main 1485 1467 O_____________ jtwc_sh SH022021 -7.10000 83.2000 TD 25 1004 -1 1007 170 50 5 48
2020332S11091 2021 112 SI MM BONGOYO 2020-12-03 09:00:00 TS -6.90009 83.5201 main 1470 1456 P_____________ SH022021 -6.90009 83.5201 TD 25 1003 -1 1006 160 50 8 60
2020332S11091 2021 112 SI MM BONGOYO 2020-12-03 12:00:00 TS -6.70000 83.9000 main 1458 1450 O_____________ jtwc_sh SH022021 -6.70000 83.9000 TD 25 1003 -1 1006 150 50 7 60
2020332S11091 2021 112 SI MM BONGOYO 2020-12-03 15:00:00 TS -6.55496 84.1225 main 1453 1442 P_____________ SH022021 -6.55496 84.1225 TD 25 1004 -1 1007 150 40 4 63
2020332S11091 2021 112 SI MM BONGOYO 2020-12-03 18:00:00 TS -6.50000 84.3000 main 1449 1449 O_____________ jtwc_sh SH022021 -6.50000 84.3000 TD 25 1005 -1 1008 150 30 4 93
2020332S11091 2021 112 SI MM BONGOYO 2020-12-03 21:00:00 TS -6.57750 84.5075 main 1466 1466 P_____________ SH022021 -6.57750 84.5075 TD 22 1004 -1 1007 165 30 4 117
2020332S11091 2021 112 SI MM BONGOYO 2020-12-04 00:00:00 NR -6.70000 84.7000 main 1483 1483 O_____________ jtwc_sh SH022021 -6.70000 84.7000 DB 20 1004 -3 1006 180 30 4 118
2020332S11091 2021 112 SI MM BONGOYO 2020-12-04 03:00:00 NR -6.75748 84.8500 main 1501 1501 P_____________ SH022021 -6.75748 84.8500 DB 20 1004 -3 1006 200 35 3 109
2020332S11091 2021 112 SI MM BONGOYO 2020-12-04 06:00:00 NR -6.80000 85.0000 main 1504 1504 O_____________ jtwc_sh SH022021 -6.80000 85.0000 DB 20 1005 -3 1007 220 40 4 104
2020332S11091 2021 112 SI MM BONGOYO 2020-12-04 09:00:00 NR -6.84251 85.2000 main 1512 1512 P_____________ SH022021 -6.84251 85.2000 DB 22 1003 -3 1006 190 40 4 104
2020332S11091 2021 112 SI MM BONGOYO 2020-12-04 12:00:00 TS -6.90000 85.4000 main 1530 1530 O_____________ jtwc_sh SH022021 -6.90000 85.4000 TD 25 1002 -1 1006 160 40 4 111
2020332S11091 2021 112 SI MM BONGOYO 2020-12-04 15:00:00 TS -6.97748 85.5500 main 1548 1548 P_____________ SH022021 -6.97748 85.5500 TD 25 1002 -1 1006 160 40 4 133
2020332S11091 2021 112 SI MM BONGOYO 2020-12-04 18:00:00 TS -7.14000 85.6600 20 1004 reunion main 1562 1562 O____O________ jtwc_sh SH022021 -7.10000 85.7000 TD 25 1002 -1 1006 160 40 -7.30000 85.5000 1 20 1004 9.90000 1 5 137
2020332S11091 2021 112 SI MM BONGOYO 2020-12-04 21:00:00 TS -7.31000 85.8667 main 1562 1551 P____P________ SH022021 -7.26998 85.8775 TD 25 1002 -1 1006 160 40 -7.39004 85.8450 1 20 1004 6 127
2020332S11091 2021 112 SI MM BONGOYO 2020-12-05 00:00:00 TS -7.50000 86.1429 20 1004 reunion main 1556 1526 O____O________ jtwc_sh SH022021 -7.50000 86.1000 TD 25 1003 -1 1007 160 40 -7.50000 86.2000 1 20 1004 9.90000 1 7 123
2020332S11091 2021 112 SI MM BONGOYO 2020-12-05 03:00:00 TS -7.71004 86.4937 main 1526 1508 P____P________ SH022021 -7.77757 86.4224 TD 25 1003 -1 1007 160 40 -7.64250 86.5650 1 20 1004 8 125
2020332S11091 2021 112 SI MM BONGOYO 2020-12-05 06:00:00 TS -7.95000 86.8000 20 1004 reunion main 1508 1500 O____O________ jtwc_sh SH022021 -8.10000 86.7000 TD 25 1004 -1 1007 160 40 -7.80000 86.9000 2 20 1004 1.00000 1.00000 1 7 131
2020332S11091 2021 112 SI MM BONGOYO 2020-12-05 09:00:00 TS -8.16248 87.0137 main 1506 1496 P____P________ SH022021 -8.44246 86.8026 TD 22 1005 -1 1007 160 40 -7.88251 87.2249 2 21 1003 6 149
2020332S11091 2021 112 SI MM BONGOYO 2020-12-05 12:00:00 TS -8.45000 87.1000 22 1003 reunion main 1507 1513 O____O________ jtwc_sh SH022021 -8.80000 86.8000 DB 20 1006 -3 1007 160 40 -8.10000 87.4000 2 22 1003 1.50000 1.50000 1 7 178
2020332S11091 2021 112 SI MM BONGOYO 2020-12-05 15:00:00 TS -8.87625 87.0450 main 1545 1545 P____P________ SH022021 -9.13500 86.7650 DB 20 1006 -3 1007 180 40 -8.61750 87.3250 2 22 1003 10 192
2020332S11091 2021 112 SI MM BONGOYO 2020-12-05 18:00:00 TS -9.40000 86.9000 22 1003 reunion main 1583 1583 O____O________ jtwc_sh SH022021 -9.50000 86.7000 DB 20 1007 -3 1008 200 40 -9.30000 87.1000 2 22 1003 1.50000 1.50000 1 11 193
2020332S11091 2021 112 SI MM BONGOYO 2020-12-05 21:00:00 TS -9.97122 86.7799 main 1629 1629 P____P________ SH022021 -9.94244 86.6948 DB 25 1005 -3 1007 200 40 -10.0000 86.8650 2 22 1003 12 194
2020332S11091 2021 112 SI MM BONGOYO 2020-12-06 00:00:00 TS -10.5500 86.6000 23 1003 reunion main 1679 1679 O____O________ jtwc_sh SH022021 -10.4000 86.6000 TD 30 1003 -1 1007 200 40 -10.7000 86.6000 2 23 1003 1.50000 1.50000 1 12 200
2020332S11091 2021 112 SI MM BONGOYO 2020-12-06 03:00:00 TS -11.0611 86.3672 main 1736 1736 P____P________ SH022021 -10.7774 86.3397 TD 30 1003 -1 1007 200 40 -11.3448 86.3947 2 24 1002 12 211
2020332S11091 2021 112 SI MM BONGOYO 2020-12-06 06:00:00 TS -11.5500 86.0000 25 1002 reunion main 1798 1798 O____O________ jtwc_sh SH022021 -11.2000 85.9000 TD 30 1003 -1 1007 200 40 -11.9000 86.1000 2 25 1002 2.00000 2.00000 1 14 222
2020332S11091 2021 112 SI MM BONGOYO 2020-12-06 09:00:00 TS -12.0727 85.4303 main 1891 1891 P____P________ SH022021 -11.8003 85.2655 TD 30 1003 -1 1007 200 40 -12.3451 85.5950 2 26 1001 15 230
2020332S11091 2021 112 SI MM BONGOYO 2020-12-06 12:00:00 TS -12.5500 84.8000 27 1000 reunion main 1970 1970 O____O________ jtwc_sh SH022021 -12.4000 84.6000 TD 30 1003 -1 1007 200 40 -12.7000 85.0000 2 27 1000 2.00000 2.00000 1 14 234
2020332S11091 2021 112 SI MM BONGOYO 2020-12-06 15:00:00 TS -12.9037 84.2622 main 2040 2040 P____P________ SH022021 -12.8148 84.1045 TD 30 1003 -1 1007 200 40 -12.9925 84.4198 2 28 999 12 234
2020332S11091 2021 112 SI MM BONGOYO 2020-12-06 18:00:00 TS -13.2500 83.8000 30 998 reunion main 2103 2103 O____O________ jtwc_sh SH022021 -13.2000 83.7000 TD 30 1004 -1 1008 200 40 -13.3000 83.9000 2 30 998 2.50000 2.50000 1 12 223
2020332S11091 2021 112 SI MM BONGOYO 2020-12-06 21:00:00 TS -13.7509 83.4649 main 2170 2170 P____P________ SH022021 -13.7297 83.3649 TD 32 1002 -1 1007 205 40 -13.7721 83.5649 2 31 997 12 216
2020332S11091 2021 112 SI MM BONGOYO 2020-12-07 00:00:00 TS -14.2000 83.1000 33 997 reunion main 2231 2231 O____O________ jtwc_sh SH022021 -14.2000 83.0000 TS 35 1000 0 30 90 55 30 1006 210 40 -14.2000 83.2000 2 33 997 2.50000 2.50000 19 1 11 235
2020332S11091 2021 112 SI MM BONGOYO 2020-12-07 03:00:00 TS -14.4053 82.5110 main 2283 2281 P____P________ SH022021 -14.4376 82.4722 TS 35 1001 0 30 90 55 30 1006 210 37 -14.3729 82.5497 2 35 996 18 12 253
2020332S11091 2021 112 SI MM BONGOYO 2020-12-07 06:00:00 TS -14.5500 81.9000 37 995 reunion main 2289 2299 O____O________ jtwc_sh SH022021 -14.6000 81.9000 TS 35 1002 0 30 90 55 30 1006 210 35 -14.5000 81.9000 3 37 995 3.00000 3.00000 17 0 51 51 0 1 11 248
2020332S11091 2021 112 SI MM BONGOYO 2020-12-07 09:00:00 TS -14.8209 81.4674 main 2321 2320 P____P________ SH022021 -14.8499 81.3850 TS 40 1000 0 30 90 55 30 1006 210 32 -14.7919 81.5498 3 38 994 17 0 60 57 0 10 236
2020332S11091 2021 112 SI MM BONGOYO 2020-12-07 12:00:00 TS -15.1000 81.0500 40 993 reunion main 2353 2352 O____O________ jtwc_sh SH022021 -15.1000 80.9000 TS 45 998 0 30 90 55 30 1006 210 30 -15.1000 81.2000 3 40 993 3.00000 3.00000 17 0 70 64 0 1 10 243
2020332S11091 2021 112 SI MM BONGOYO 2020-12-07 15:00:00 TS -15.2963 80.5073 main 2375 2375 P____P________ SH022021 -15.2923 80.4497 TS 45 999 0 32 90 67 32 1007 185 27 -15.3004 80.5649 3 42 991 16 12 75 69 12 11 249
2020332S11091 2021 112 SI MM BONGOYO 2020-12-07 18:00:00 TS -15.5000 79.9500 45 990 reunion main 2398 2350 O____O________ jtwc_sh SH022021 -15.5000 80.0000 TS 45 1000 0 35 90 80 35 1008 160 25 -15.5000 79.9000 3 45 990 3.50000 3.50000 16 24 80 75 24 1 11 245
2020332S11091 2021 112 SI MM BONGOYO 2020-12-07 21:00:00 TS -15.7624 79.4523 main 2347 2286 P____P________ SH022021 -15.7625 79.4924 TS 50 996 0 47 90 82 37 11 21 19 1007 160 22 -15.7622 79.4123 3 50 986 15 26 81 72 26 11 237
2020332S11091 2021 112 SI MM BONGOYO 2020-12-08 00:00:00 TS -16.1000 79.0000 55 983 reunion main 2286 2233 O____O________ jtwc_sh SH022021 -16.1000 79.0000 TS 55 993 0 60 90 85 40 23 42 39 1007 160 20 -16.1000 79.0000 3 55 983 3.50000 3.50000 15 29 83 70 29 19 29 24 0 1 11 227
2020332S11091 2021 112 SI MM BONGOYO 2020-12-08 03:00:00 TS -16.5424 78.5887 main 2233 2179 P____P________ SH022021 -16.5424 78.5775 TS 55 992 0 57 92 80 40 21 44 36 1006 162 20 -16.5423 78.6000 3 55 983 15 29 86 70 32 19 29 24 0 12 220
2020332S11091 2021 112 SI MM BONGOYO 2020-12-08 06:00:00 TS -17.0000 78.2000 55 983 reunion main 2179 2130 O____O________ jtwc_sh SH022021 -17.0000 78.2000 TS 55 992 0 55 95 75 40 20 46 33 1006 165 20 -17.0000 78.2000 3 55 983 4.00000 4.00000 15 29 89 70 35 19 29 24 0 1 11 223
2020332S11091 2021 112 SI MM BONGOYO 2020-12-08 09:00:00 TS -17.3537 77.7997 main 2128 2079 P____P________ SH022021 -17.3573 77.8571 TS 57 990 0 55 95 72 40 20 46 31 1006 170 20 -17.3500 77.7423 3 54 983 14 32 79 60 35 9 29 24 0 10 227
2020332S11091 2021 112 SI MM BONGOYO 2020-12-08 12:00:00 TS -17.7000 77.4000 53 984 reunion main 2079 2029 O____O________ jtwc_sh SH022021 -17.7000 77.5000 TS 60 989 0 55 95 70 40 21 46 30 1006 175 20 -17.7000 77.3000 3 53 984 3.00000 3.50000 14 35 70 51 35 0 29 24 0 1 11 228
2020332S11091 2021 112 SI MM BONGOYO 2020-12-08 15:00:00 TS -18.0914 76.9514 main 2029 1980 P____P________ SH022021 -18.0703 77.0127 TS 60 990 0 67 97 75 47 28 47 33 1007 175 20 -18.1125 76.8901 3 53 984 14 37 60 48 35 9 29 24 0 11 222
2020332S11091 2021 112 SI MM BONGOYO 2020-12-08 18:00:00 TS -18.5500 76.6000 53 984 reunion main 1980 1961 O____O________ jtwc_sh SH022021 -18.5000 76.6000 TS 60 992 0 80 100 80 55 36 49 36 21 1009 175 20 -18.6000 76.6000 3 53 984 3.50000 3.50000 15 40 51 45 35 19 29 24 0 1 11 203
2020332S11091 2021 112 SI MM BONGOYO 2020-12-08 21:00:00 TS -19.1398 76.4759 main 1961 1953 P____P________ SH022021 -19.0573 76.4397 TS 60 991 0 82 97 75 50 37 47 33 1008 165 17 -19.2224 76.5121 3 54 983 14 40 52 48 37 21 29 24 9 12 187
2020332S11091 2021 112 SI MM BONGOYO 2020-12-09 00:00:00 TS -19.7000 76.4500 55 983 reunion main 1953 1939 O____O________ jtwc_sh SH022021 -19.6000 76.4000 TS 60 990 0 85 95 70 45 39 46 30 1007 155 15 -19.8000 76.5000 3 55 983 4.00000 4.00000 14 40 53 51 40 24 29 24 19 1 10 186
2020332S11091 2021 112 SI MM BONGOYO 2020-12-09 03:00:00 TS -20.0850 76.3750 main 1939 1928 P____P________ SH022021 -20.0025 76.3424 TS 55 992 0 85 95 70 45 39 45 29 1007 162 17 -20.1675 76.4075 3 57 981 14 40 53 52 40 24 29 24 19 7 192
2020332S11091 2021 112 SI MM BONGOYO 2020-12-09 06:00:00 TS -20.3500 76.3000 60 980 reunion main 1928 1916 O____O________ jtwc_sh SH022021 -20.3000 76.3000 TS 50 995 0 85 95 70 45 39 45 29 1007 170 20 -20.4000 76.3000 3 60 980 4.00000 4.00000 15 40 53 53 40 24 29 24 19 1 5 197
2020332S11091 2021 112 SI MM BONGOYO 2020-12-09 09:00:00 TS -20.5625 76.2212 main 1916 1915 P____P________ SH022021 -20.5375 76.2500 TS 47 996 0 85 95 70 45 1007 170 20 -20.5875 76.1925 3 55 983 19 40 49 56 40 12 29 12 9 4 202
2020332S11091 2021 112 SI MM BONGOYO 2020-12-09 12:00:00 TS -20.7000 76.1500 50 987 reunion main 1915 1904 O____O________ jtwc_sh SH022021 -20.7000 76.2000 TS 45 998 0 85 95 70 45 1008 170 20 -20.7000 76.1000 3 50 987 3.00000 3.50000 24 40 45 59 40 0 29 0 0 1 3 208
2020332S11091 2021 112 SI MM BONGOYO 2020-12-09 15:00:00 TS -20.7937 76.0887 main 1904 1904 P____P________ SH022021 -20.8225 76.1425 TS 40 1000 0 82 92 70 45 1008 150 20 -20.7650 76.0350 3 46 989 29 20 42 64 40 2 212
2020332S11091 2021 112 SI MM BONGOYO 2020-12-09 18:00:00 TS -20.8500 76.0500 43 992 reunion main 1904 1894 O____O________ jtwc_sh SH022021 -20.9000 76.1000 TS 35 1002 0 80 90 70 45 1008 130 20 -20.8000 76.0000 3 43 992 2.50000 3.00000 35 0 40 70 40 1 1 199
2020332S11091 2021 112 SI MM BONGOYO 2020-12-09 21:00:00 TS -20.8925 76.0500 main 1904 1894 P____P________ SH022021 -20.9425 76.1075 TS 35 1001 0 72 87 72 50 1007 135 20 -20.8425 75.9925 3 41 993 0 49 70 40 1 0
2020332S11091 2021 112 SI MM BONGOYO 2020-12-10 00:00:00 TS -20.9500 76.0500 40 994 reunion main 1904 1893 O____O________ jtwc_sh SH022021 -21.0000 76.1000 TS 35 1001 0 65 85 75 55 1007 140 20 -20.9000 76.0000 3 40 994 2.50000 3.00000 0 59 70 40 1 2 195
2020332S11091 2021 112 SI MM BONGOYO 2020-12-10 03:00:00 TS -21.0637 76.0150 main 1893 1893 P____P________ SH022021 -21.1425 76.0300 TS 35 1001 0 60 75 75 55 1007 140 27 -20.9850 76.0000 3 40 994 0 64 75 40 3 201
2020332S11091 2021 112 SI MM BONGOYO 2020-12-10 06:00:00 TS -21.2000 75.9500 40 995 reunion main 1893 1883 O____O________ jtwc_sh SH022021 -21.3000 75.9000 TS 35 1001 0 55 65 75 55 1007 140 35 -21.1000 76.0000 3 40 995 2.50000 3.00000 0 70 80 40 1 3 210
2020332S11091 2021 112 SI MM BONGOYO 2020-12-10 09:00:00 TS -21.3288 75.8500 main 1883 1873 P____P________ SH022021 -21.4076 75.6925 TS 35 1000 0 55 65 75 55 1007 140 37 -21.2500 76.0075 3 39 996 0 79 89 20 3 217
2020332S11091 2021 112 SI MM BONGOYO 2020-12-10 12:00:00 TS -21.4500 75.7500 38 997 reunion main 1873 1862 O____O________ jtwc_sh SH022021 -21.5000 75.5000 TS 35 999 0 55 65 75 55 1007 140 40 -21.4000 76.0000 3 38 997 2.50000 3.00000 0 89 99 0 1 3 209
2020332S11091 2021 112 SI MM BONGOYO 2020-12-10 15:00:00 TS -21.5537 75.7187 main 1863 1863 P____P________ SH022021 -21.5999 75.4424 TS 35 1001 0 52 72 77 52 1008 140 40 -21.5074 75.9949 3 37 997 0 94 108 0 2 207
2020332S11091 2021 112 SI MM BONGOYO 2020-12-10 18:00:00 TS -21.6500 75.6500 37 998 reunion main 1863 1842 O____O________ jtwc_sh SH022021 -21.7000 75.4000 TS 35 1004 0 50 80 80 50 1010 140 40 -21.6000 75.9000 3 37 998 2.50000 3.00000 0 99 118 0 1 3 226
2020332S11091 2021 112 SI MM BONGOYO 2020-12-10 21:00:00 TS -21.7686 75.4814 main 1843 1812 P____P________ SH022021 -21.8149 75.3025 TS 32 1005 -1 1009 135 40 -21.7224 75.6602 3 36 999 0 49 59 0 5 245
2020332S11091 2021 112 SI MM BONGOYO 2020-12-11 00:00:00 TS -21.8500 75.2000 35 1000 reunion main 1812 1781 O____O________ jtwc_sh SH022021 -21.9000 75.1000 TD 30 1006 -1 1009 130 40 -21.8000 75.3000 6 35 1000 9.90000 0 0 0 0 1 6 263
2020332S11091 2021 112 SI MM BONGOYO 2020-12-11 03:00:00 TS -21.8474 74.8274 main 1770 1729 P____P________ SH022021 -21.9149 74.7599 TD 27 1006 -1 1009 130 45 -21.7798 74.8950 6 34 1001 8 274
2020332S11091 2021 112 SI MM BONGOYO 2020-12-11 06:00:00 TS -21.8000 74.3500 33 1002 reunion main 1729 1667 O____O________ jtwc_sh SH022021 -21.9000 74.3000 TD 25 1006 -1 1009 130 50 -21.7000 74.4000 6 33 1002 9.90000 1 9 276
2020332S11091 2021 112 SI MM BONGOYO 2020-12-11 09:00:00 TS -21.7536 73.8125 main 1667 1605 P____P________ SH022021 -21.8996 73.8100 TD 25 1006 -1 1009 130 50 -21.6076 73.8149 6 31 1003 11 275
2020332S11091 2021 112 SI MM BONGOYO 2020-12-11 12:00:00 TS -21.7000 73.2000 30 1004 reunion main 1605 1543 O____O________ jtwc_sh SH022021 -21.9000 73.2000 TD 25 1007 -1 1009 130 50 -21.5000 73.2000 6 30 1004 9.90000 1 12 273
2020332S11091 2021 112 SI MM BONGOYO 2020-12-11 15:00:00 TS -21.6802 72.5179 main 1533 1470 P____P________ SH022021 -21.9533 72.3781 TD 25 1008 -1 1010 125 50 -21.4071 72.6577 6 28 1005 12 277
2020332S11091 2021 112 SI MM BONGOYO 2020-12-11 18:00:00 TS -21.5571 71.8857 27 1006 reunion main 1470 1417 O____O________ jtwc_sh SH022021 -21.9000 71.6000 TD 25 1010 -1 1012 120 50 -21.3000 72.1000 6 27 1006 9.90000 1 11 289
2020332S11091 2021 112 SI MM BONGOYO 2020-12-11 21:00:00 TS -21.3064 71.3506 main 1417 1354 P____P________ SH022021 -21.6194 71.1069 TD 22 1011 -1 1012 125 50 -21.1498 71.4724 6 26 1006 11 297
2020332S11091 2021 112 SI MM BONGOYO 2020-12-12 00:00:00 TS -21.0400 70.8000 25 1007 reunion main 1354 1281 O____O________ jtwc_sh SH022021 -21.2000 70.8000 DB 20 1012 -3 1012 130 50 -21.0000 70.8000 6 25 1007 9.90000 1 12 289
2020332S11091 2021 112 SI MM BONGOYO 2020-12-12 03:00:00 TS -20.8999 70.1003 main 1281 1208 _____P________ SH022021 DB -3 -20.8999 70.1003 6 24 1007 13 280
2020332S11091 2021 112 SI MM BONGOYO 2020-12-12 06:00:00 TS -20.8000 69.4000 23 1008 reunion main 1208 1146 _____O________ -5 -20.8000 69.4000 6 23 1008 9.90000 1 13 281
2020332S11091 2021 112 SI MM BONGOYO 2020-12-12 09:00:00 TS -20.6629 68.7371 main 1135 1073 _____P________ -5 -20.6629 68.7371 6 21 1009 13 284
2020332S11091 2021 112 SI MM BONGOYO 2020-12-12 12:00:00 TS -20.5000 68.1000 20 1010 reunion main 1073 _____O________ -5 -20.5000 68.1000 6 20 1010 9.90000 1 12 285

About IBTrACS Database

This database is a web-friendly format of International Best Track Archive for Climate Stewardship (IBTrACS), a global best track data archive curated by NOAA dating back to 1842.

Updated: 2022-11-16